sensor_id;sensor_type;location;lat;lon;timestamp;temperature;humidity
21275;DHT22;36472;52.170;20.884;2023-01-29T00:00:37;21.30;31.40
21275;DHT22;36472;52.170;20.884;2023-01-29T00:03:26;21.30;31.40
21275;DHT22;36472;52.170;20.884;2023-01-29T00:05:55;21.30;31.40
21275;DHT22;36472;52.170;20.884;2023-01-29T00:08:26;21.30;31.00
21275;DHT22;36472;52.170;20.884;2023-01-29T00:10:59;21.20;31.00
21275;DHT22;36472;52.170;20.884;2023-01-29T00:13:29;21.10;31.40
21275;DHT22;36472;52.170;20.884;2023-01-29T00:15:58;21.10;31.50
21275;DHT22;36472;52.170;20.884;2023-01-29T00:18:29;21.10;31.50
21275;DHT22;36472;52.170;20.884;2023-01-29T00:20:59;21.10;31.70
21275;DHT22;36472;52.170;20.884;2023-01-29T00:23:29;21.10;31.40
21275;DHT22;36472;52.170;20.884;2023-01-29T00:25:58;21.20;31.50
21275;DHT22;36472;52.170;20.884;2023-01-29T00:28:28;21.20;31.40
21275;DHT22;36472;52.170;20.884;2023-01-29T00:30:57;21.20;31.70
21275;DHT22;36472;52.170;20.884;2023-01-29T00:33:28;21.20;31.90
21275;DHT22;36472;52.170;20.884;2023-01-29T00:35:56;21.20;31.70
21275;DHT22;36472;52.170;20.884;2023-01-29T00:38:25;21.20;31.50
21275;DHT22;36472;52.170;20.884;2023-01-29T00:40:56;21.20;31.60
21275;DHT22;36472;52.170;20.884;2023-01-29T00:43:43;21.30;31.60
21275;DHT22;36472;52.170;20.884;2023-01-29T00:46:29;21.30;31.50
21275;DHT22;36472;52.170;20.884;2023-01-29T00:48:58;21.30;31.40
21275;DHT22;36472;52.170;20.884;2023-01-29T00:51:27;21.30;31.40
21275;DHT22;36472;52.170;20.884;2023-01-29T00:53:57;21.30;31.20
21275;DHT22;36472;52.170;20.884;2023-01-29T00:56:30;21.30;31.30
21275;DHT22;36472;52.170;20.884;2023-01-29T00:58:59;21.30;31.00
21275;DHT22;36472;52.170;20.884;2023-01-29T01:01:28;21.30;31.20
21275;DHT22;36472;52.170;20.884;2023-01-29T01:04:15;21.20;31.10
21275;DHT22;36472;52.170;20.884;2023-01-29T01:06:44;21.20;31.30
21275;DHT22;36472;52.170;20.884;2023-01-29T01:09:13;21.20;31.50
21275;DHT22;36472;52.170;20.884;2023-01-29T01:12:02;21.20;31.70
21275;DHT22;36472;52.170;20.884;2023-01-29T01:14:32;21.20;32.00
21275;DHT22;36472;52.170;20.884;2023-01-29T01:17:02;21.30;32.40
21275;DHT22;36472;52.170;20.884;2023-01-29T01:19:32;21.30;31.90
21275;DHT22;36472;52.170;20.884;2023-01-29T01:22:01;21.20;31.30
21275;DHT22;36472;52.170;20.884;2023-01-29T01:24:31;21.20;31.40
21275;DHT22;36472;52.170;20.884;2023-01-29T01:27:02;21.20;31.90
21275;DHT22;36472;52.170;20.884;2023-01-29T01:29:31;21.20;31.70
21275;DHT22;36472;52.170;20.884;2023-01-29T01:32:00;21.20;31.90
21275;DHT22;36472;52.170;20.884;2023-01-29T01:34:29;21.30;32.00
21275;DHT22;36472;52.170;20.884;2023-01-29T01:36:58;21.30;31.80
21275;DHT22;36472;52.170;20.884;2023-01-29T01:39:28;21.30;32.30
21275;DHT22;36472;52.170;20.884;2023-01-29T01:41:57;21.30;31.80
21275;DHT22;36472;52.170;20.884;2023-01-29T01:44:51;21.30;31.90
21275;DHT22;36472;52.170;20.884;2023-01-29T01:47:32;21.30;31.80
21275;DHT22;36472;52.170;20.884;2023-01-29T01:50:08;21.40;31.90
21275;DHT22;36472;52.170;20.884;2023-01-29T01:52:44;21.40;31.80
21275;DHT22;36472;52.170;20.884;2023-01-29T01:55:18;21.30;31.80
21275;DHT22;36472;52.170;20.884;2023-01-29T01:57:54;21.40;31.90
21275;DHT22;36472;52.170;20.884;2023-01-29T02:00:32;21.40;32.00
21275;DHT22;36472;52.170;20.884;2023-01-29T02:03:01;21.40;31.90
21275;DHT22;36472;52.170;20.884;2023-01-29T02:05:50;21.40;32.10
21275;DHT22;36472;52.170;20.884;2023-01-29T02:08:44;21.40;32.00
21275;DHT22;36472;52.170;20.884;2023-01-29T02:11:37;21.30;31.80
21275;DHT22;36472;52.170;20.884;2023-01-29T02:14:06;21.30;31.80
21275;DHT22;36472;52.170;20.884;2023-01-29T02:16:37;21.30;32.30
21275;DHT22;36472;52.170;20.884;2023-01-29T02:19:12;21.30;32.10
21275;DHT22;36472;52.170;20.884;2023-01-29T02:22:21;21.30;32.10
21275;DHT22;36472;52.170;20.884;2023-01-29T02:28:44;21.30;32.00
21275;DHT22;36472;52.170;20.884;2023-01-29T02:31:27;21.30;32.00
21275;DHT22;36472;52.170;20.884;2023-01-29T02:34:10;21.30;32.30
21275;DHT22;36472;52.170;20.884;2023-01-29T02:36:50;21.30;31.90
21275;DHT22;36472;52.170;20.884;2023-01-29T02:39:30;21.30;32.20
21275;DHT22;36472;52.170;20.884;2023-01-29T02:42:10;21.30;32.10
21275;DHT22;36472;52.170;20.884;2023-01-29T02:44:48;21.30;32.40
21275;DHT22;36472;52.170;20.884;2023-01-29T02:47:28;21.30;32.40
21275;DHT22;36472;52.170;20.884;2023-01-29T02:50:05;21.30;32.20
21275;DHT22;36472;52.170;20.884;2023-01-29T02:52:45;21.30;32.20
21275;DHT22;36472;52.170;20.884;2023-01-29T02:55:25;21.30;32.20
21275;DHT22;36472;52.170;20.884;2023-01-29T02:58:04;21.30;32.20
21275;DHT22;36472;52.170;20.884;2023-01-29T03:00:43;21.30;32.20
21275;DHT22;36472;52.170;20.884;2023-01-29T03:03:17;21.30;32.30
21275;DHT22;36472;52.170;20.884;2023-01-29T03:05:55;21.30;32.30
21275;DHT22;36472;52.170;20.884;2023-01-29T03:08:36;21.30;32.30
21275;DHT22;36472;52.170;20.884;2023-01-29T03:11:14;21.30;32.30
21275;DHT22;36472;52.170;20.884;2023-01-29T03:13:47;21.30;32.20
21275;DHT22;36472;52.170;20.884;2023-01-29T03:16:28;21.20;32.40
21275;DHT22;36472;52.170;20.884;2023-01-29T03:19:02;21.20;32.90
21275;DHT22;36472;52.170;20.884;2023-01-29T03:21:39;21.20;32.30
21275;DHT22;36472;52.170;20.884;2023-01-29T03:24:24;21.20;32.50
21275;DHT22;36472;52.170;20.884;2023-01-29T03:27:26;21.20;32.40
21275;DHT22;36472;52.170;20.884;2023-01-29T03:30:17;21.20;32.10
21275;DHT22;36472;52.170;20.884;2023-01-29T03:33:22;21.20;32.40
21275;DHT22;36472;52.170;20.884;2023-01-29T03:35:58;21.20;32.00
21275;DHT22;36472;52.170;20.884;2023-01-29T03:38:34;21.20;32.30
21275;DHT22;36472;52.170;20.884;2023-01-29T03:41:06;21.20;33.10
21275;DHT22;36472;52.170;20.884;2023-01-29T03:43:47;21.20;32.60
21275;DHT22;36472;52.170;20.884;2023-01-29T03:46:28;21.20;32.50
21275;DHT22;36472;52.170;20.884;2023-01-29T03:49:05;21.30;32.30
21275;DHT22;36472;52.170;20.884;2023-01-29T03:51:50;21.20;32.20
21275;DHT22;36472;52.170;20.884;2023-01-29T03:54:28;21.20;32.30
21275;DHT22;36472;52.170;20.884;2023-01-29T03:57:12;21.30;32.10
21275;DHT22;36472;52.170;20.884;2023-01-29T03:59:52;21.30;32.20
21275;DHT22;36472;52.170;20.884;2023-01-29T04:02:46;21.20;32.00
21275;DHT22;36472;52.170;20.884;2023-01-29T04:05:24;21.30;32.20
21275;DHT22;36472;52.170;20.884;2023-01-29T04:08:11;21.30;32.30
21275;DHT22;36472;52.170;20.884;2023-01-29T04:10:47;21.30;32.40
21275;DHT22;36472;52.170;20.884;2023-01-29T04:13:17;21.30;32.20
21275;DHT22;36472;52.170;20.884;2023-01-29T04:15:51;21.20;32.10
21275;DHT22;36472;52.170;20.884;2023-01-29T04:18:44;21.20;32.30
21275;DHT22;36472;52.170;20.884;2023-01-29T04:21:17;21.20;32.50
21275;DHT22;36472;52.170;20.884;2023-01-29T04:23:46;21.20;32.30
21275;DHT22;36472;52.170;20.884;2023-01-29T04:26:24;21.20;32.30
21275;DHT22;36472;52.170;20.884;2023-01-29T04:29:20;21.20;33.10
21275;DHT22;36472;52.170;20.884;2023-01-29T04:32:16;21.30;32.30
21275;DHT22;36472;52.170;20.884;2023-01-29T04:34:59;21.30;32.30
21275;DHT22;36472;52.170;20.884;2023-01-29T04:37:41;21.30;32.50
21275;DHT22;36472;52.170;20.884;2023-01-29T04:40:22;21.30;32.30
21275;DHT22;36472;52.170;20.884;2023-01-29T04:43:02;21.30;32.50
21275;DHT22;36472;52.170;20.884;2023-01-29T04:45:42;21.30;32.40
21275;DHT22;36472;52.170;20.884;2023-01-29T04:48:19;21.30;32.20
21275;DHT22;36472;52.170;20.884;2023-01-29T04:50:56;21.40;32.40
21275;DHT22;36472;52.170;20.884;2023-01-29T04:53:42;21.40;32.30
21275;DHT22;36472;52.170;20.884;2023-01-29T04:56:19;21.40;32.20
21275;DHT22;36472;52.170;20.884;2023-01-29T04:58:57;21.40;32.10
21275;DHT22;36472;52.170;20.884;2023-01-29T05:01:32;21.40;32.10
21275;DHT22;36472;52.170;20.884;2023-01-29T05:04:09;21.40;32.20
21275;DHT22;36472;52.170;20.884;2023-01-29T05:06:40;21.30;32.30
21275;DHT22;36472;52.170;20.884;2023-01-29T05:09:15;21.30;32.30
21275;DHT22;36472;52.170;20.884;2023-01-29T05:11:46;21.30;32.30
21275;DHT22;36472;52.170;20.884;2023-01-29T05:14:17;21.30;32.30
21275;DHT22;36472;52.170;20.884;2023-01-29T05:16:51;21.40;32.50
21275;DHT22;36472;52.170;20.884;2023-01-29T05:19:22;21.30;32.50
21275;DHT22;36472;52.170;20.884;2023-01-29T05:21:50;21.40;32.90
21275;DHT22;36472;52.170;20.884;2023-01-29T05:24:23;21.40;32.50
21275;DHT22;36472;52.170;20.884;2023-01-29T05:26:54;21.40;32.40
21275;DHT22;36472;52.170;20.884;2023-01-29T05:29:44;21.40;32.70
21275;DHT22;36472;52.170;20.884;2023-01-29T05:32:14;21.40;32.40
21275;DHT22;36472;52.170;20.884;2023-01-29T05:34:44;21.40;32.60
21275;DHT22;36472;52.170;20.884;2023-01-29T05:37:12;21.40;32.40
21275;DHT22;36472;52.170;20.884;2023-01-29T05:39:43;21.30;32.40
21275;DHT22;36472;52.170;20.884;2023-01-29T05:42:12;21.30;32.60
21275;DHT22;36472;52.170;20.884;2023-01-29T05:44:41;21.30;32.70
21275;DHT22;36472;52.170;20.884;2023-01-29T05:47:10;21.30;32.50
21275;DHT22;36472;52.170;20.884;2023-01-29T05:49:39;21.30;32.60
21275;DHT22;36472;52.170;20.884;2023-01-29T05:52:08;21.30;32.50
21275;DHT22;36472;52.170;20.884;2023-01-29T05:54:37;21.30;32.60
21275;DHT22;36472;52.170;20.884;2023-01-29T05:57:07;21.30;32.50
21275;DHT22;36472;52.170;20.884;2023-01-29T05:59:36;21.30;32.40
21275;DHT22;36472;52.170;20.884;2023-01-29T06:02:05;21.30;32.40
21275;DHT22;36472;52.170;20.884;2023-01-29T06:04:34;21.30;32.40
21275;DHT22;36472;52.170;20.884;2023-01-29T06:07:03;21.20;32.50
21275;DHT22;36472;52.170;20.884;2023-01-29T06:09:32;21.20;32.50
21275;DHT22;36472;52.170;20.884;2023-01-29T06:12:01;21.20;32.50
21275;DHT22;36472;52.170;20.884;2023-01-29T06:14:34;21.30;32.40
21275;DHT22;36472;52.170;20.884;2023-01-29T06:17:02;21.30;32.70
21275;DHT22;36472;52.170;20.884;2023-01-29T06:19:32;21.30;32.60
21275;DHT22;36472;52.170;20.884;2023-01-29T06:22:01;21.20;32.50
21275;DHT22;36472;52.170;20.884;2023-01-29T06:24:30;21.30;32.80
21275;DHT22;36472;52.170;20.884;2023-01-29T06:26:59;21.30;33.00
21275;DHT22;36472;52.170;20.884;2023-01-29T06:29:29;21.30;32.70
21275;DHT22;36472;52.170;20.884;2023-01-29T06:31:59;21.30;32.80
21275;DHT22;36472;52.170;20.884;2023-01-29T06:34:28;21.30;32.40
21275;DHT22;36472;52.170;20.884;2023-01-29T06:36:57;21.20;32.60
21275;DHT22;36472;52.170;20.884;2023-01-29T06:39:26;21.20;32.60
21275;DHT22;36472;52.170;20.884;2023-01-29T06:41:55;21.20;32.90
21275;DHT22;36472;52.170;20.884;2023-01-29T06:44:24;21.20;32.60
21275;DHT22;36472;52.170;20.884;2023-01-29T06:46:53;21.20;32.80
21275;DHT22;36472;52.170;20.884;2023-01-29T06:49:24;21.10;32.70
21275;DHT22;36472;52.170;20.884;2023-01-29T06:51:53;21.10;33.00
21275;DHT22;36472;52.170;20.884;2023-01-29T06:54:22;21.10;32.90
21275;DHT22;36472;52.170;20.884;2023-01-29T06:56:51;21.20;33.10
21275;DHT22;36472;52.170;20.884;2023-01-29T06:59:20;21.20;32.90
21275;DHT22;36472;52.170;20.884;2023-01-29T07:01:49;21.10;32.90
21275;DHT22;36472;52.170;20.884;2023-01-29T07:04:18;21.10;32.90
21275;DHT22;36472;52.170;20.884;2023-01-29T07:06:49;21.20;32.90
21275;DHT22;36472;52.170;20.884;2023-01-29T07:09:18;21.20;32.60
21275;DHT22;36472;52.170;20.884;2023-01-29T07:11:47;21.20;32.90
21275;DHT22;36472;52.170;20.884;2023-01-29T07:14:16;21.20;32.70
21275;DHT22;36472;52.170;20.884;2023-01-29T07:16:45;21.20;32.90
21275;DHT22;36472;52.170;20.884;2023-01-29T07:19:14;21.30;32.60
21275;DHT22;36472;52.170;20.884;2023-01-29T07:21:43;21.30;32.70
21275;DHT22;36472;52.170;20.884;2023-01-29T07:24:14;21.30;32.80
21275;DHT22;36472;52.170;20.884;2023-01-29T07:26:43;21.40;32.20
21275;DHT22;36472;52.170;20.884;2023-01-29T07:29:12;21.40;32.60
21275;DHT22;36472;52.170;20.884;2023-01-29T07:31:41;21.40;32.20
21275;DHT22;36472;52.170;20.884;2023-01-29T07:34:10;21.40;32.10
21275;DHT22;36472;52.170;20.884;2023-01-29T07:36:39;21.50;32.10
21275;DHT22;36472;52.170;20.884;2023-01-29T07:39:08;21.50;32.10
21275;DHT22;36472;52.170;20.884;2023-01-29T07:41:39;21.50;32.20
21275;DHT22;36472;52.170;20.884;2023-01-29T07:44:15;21.40;31.80
21275;DHT22;36472;52.170;20.884;2023-01-29T07:46:44;21.40;32.00
21275;DHT22;36472;52.170;20.884;2023-01-29T07:49:13;21.40;32.20
21275;DHT22;36472;52.170;20.884;2023-01-29T07:51:42;21.40;32.00
21275;DHT22;36472;52.170;20.884;2023-01-29T07:54:11;21.40;32.10
21275;DHT22;36472;52.170;20.884;2023-01-29T07:56:41;21.40;32.00
21275;DHT22;36472;52.170;20.884;2023-01-29T07:59:10;21.40;32.40
21275;DHT22;36472;52.170;20.884;2023-01-29T08:01:39;21.40;32.30
21275;DHT22;36472;52.170;20.884;2023-01-29T08:04:09;21.50;32.10
21275;DHT22;36472;52.170;20.884;2023-01-29T08:06:37;21.40;32.30
21275;DHT22;36472;52.170;20.884;2023-01-29T08:09:06;21.50;32.20
21275;DHT22;36472;52.170;20.884;2023-01-29T08:11:35;21.50;32.40
21275;DHT22;36472;52.170;20.884;2023-01-29T08:14:06;21.50;31.90
21275;DHT22;36472;52.170;20.884;2023-01-29T08:16:35;21.50;32.00
21275;DHT22;36472;52.170;20.884;2023-01-29T08:19:05;21.50;32.50
21275;DHT22;36472;52.170;20.884;2023-01-29T08:21:33;21.60;32.20
21275;DHT22;36472;52.170;20.884;2023-01-29T08:24:03;21.60;32.50
21275;DHT22;36472;52.170;20.884;2023-01-29T08:26:32;21.60;32.10
21275;DHT22;36472;52.170;20.884;2023-01-29T08:29:02;21.60;32.30
21275;DHT22;36472;52.170;20.884;2023-01-29T08:31:32;21.60;32.20
21275;DHT22;36472;52.170;20.884;2023-01-29T08:34:01;21.60;32.00
21275;DHT22;36472;52.170;20.884;2023-01-29T08:36:30;21.50;32.20
21275;DHT22;36472;52.170;20.884;2023-01-29T08:39:01;21.60;32.30
21275;DHT22;36472;52.170;20.884;2023-01-29T08:41:29;21.50;32.30
21275;DHT22;36472;52.170;20.884;2023-01-29T08:43:59;21.60;32.90
21275;DHT22;36472;52.170;20.884;2023-01-29T08:46:32;21.60;32.50
21275;DHT22;36472;52.170;20.884;2023-01-29T08:49:01;21.60;32.40
21275;DHT22;36472;52.170;20.884;2023-01-29T08:51:30;21.60;32.30
21275;DHT22;36472;52.170;20.884;2023-01-29T08:53:59;21.60;32.10
21275;DHT22;36472;52.170;20.884;2023-01-29T08:56:28;21.60;32.10
21275;DHT22;36472;52.170;20.884;2023-01-29T08:58:57;21.60;32.50
21275;DHT22;36472;52.170;20.884;2023-01-29T09:01:26;21.70;33.00
21275;DHT22;36472;52.170;20.884;2023-01-29T09:03:57;21.60;32.10
21275;DHT22;36472;52.170;20.884;2023-01-29T09:06:26;21.70;32.30
21275;DHT22;36472;52.170;20.884;2023-01-29T09:08:55;21.70;32.20
21275;DHT22;36472;52.170;20.884;2023-01-29T09:11:24;21.70;32.40
21275;DHT22;36472;52.170;20.884;2023-01-29T09:13:54;21.80;32.40
21275;DHT22;36472;52.170;20.884;2023-01-29T09:16:23;21.70;32.60
21275;DHT22;36472;52.170;20.884;2023-01-29T09:18:52;21.70;32.50
21275;DHT22;36472;52.170;20.884;2023-01-29T09:21:22;21.80;32.70
21275;DHT22;36472;52.170;20.884;2023-01-29T09:23:51;21.90;32.90
21275;DHT22;36472;52.170;20.884;2023-01-29T09:26:20;21.90;32.90
21275;DHT22;36472;52.170;20.884;2023-01-29T09:28:49;21.90;32.50
21275;DHT22;36472;52.170;20.884;2023-01-29T09:31:18;22.00;32.50
21275;DHT22;36472;52.170;20.884;2023-01-29T09:33:48;21.90;32.60
21275;DHT22;36472;52.170;20.884;2023-01-29T09:36:16;21.90;32.70
21275;DHT22;36472;52.170;20.884;2023-01-29T09:38:47;22.00;33.00
21275;DHT22;36472;52.170;20.884;2023-01-29T09:41:26;22.00;32.70
21275;DHT22;36472;52.170;20.884;2023-01-29T09:44:12;22.00;33.00
21275;DHT22;36472;52.170;20.884;2023-01-29T09:46:50;22.00;32.80
21275;DHT22;36472;52.170;20.884;2023-01-29T09:49:25;22.10;32.70
21275;DHT22;36472;52.170;20.884;2023-01-29T09:52:01;22.20;32.40
21275;DHT22;36472;52.170;20.884;2023-01-29T09:54:47;22.20;32.70
21275;DHT22;36472;52.170;20.884;2023-01-29T09:57:24;22.00;32.80
21275;DHT22;36472;52.170;20.884;2023-01-29T09:59:59;22.10;33.10
21275;DHT22;36472;52.170;20.884;2023-01-29T10:02:59;22.00;33.20
21275;DHT22;36472;52.170;20.884;2023-01-29T10:05:49;22.00;33.50
21275;DHT22;36472;52.170;20.884;2023-01-29T10:08:59;22.00;33.70
21275;DHT22;36472;52.170;20.884;2023-01-29T10:12:12;22.10;33.90
21275;DHT22;36472;52.170;20.884;2023-01-29T10:14:58;22.20;33.90
21275;DHT22;36472;52.170;20.884;2023-01-29T10:17:50;22.20;33.70
21275;DHT22;36472;52.170;20.884;2023-01-29T10:20:46;22.20;33.70
21275;DHT22;36472;52.170;20.884;2023-01-29T10:23:25;22.00;33.80
21275;DHT22;36472;52.170;20.884;2023-01-29T10:25:56;22.00;33.90
21275;DHT22;36472;52.170;20.884;2023-01-29T10:28:30;22.10;34.10
21275;DHT22;36472;52.170;20.884;2023-01-29T10:31:07;22.20;34.30
21275;DHT22;36472;52.170;20.884;2023-01-29T10:33:44;22.10;34.20
21275;DHT22;36472;52.170;20.884;2023-01-29T10:36:33;22.20;34.30
21275;DHT22;36472;52.170;20.884;2023-01-29T10:39:14;22.20;34.70
21275;DHT22;36472;52.170;20.884;2023-01-29T10:41:57;22.20;34.70
21275;DHT22;36472;52.170;20.884;2023-01-29T10:44:44;22.10;35.00
21275;DHT22;36472;52.170;20.884;2023-01-29T10:47:49;22.10;34.90
21275;DHT22;36472;52.170;20.884;2023-01-29T10:50:44;22.10;35.10
21275;DHT22;36472;52.170;20.884;2023-01-29T10:53:37;22.20;34.90
21275;DHT22;36472;52.170;20.884;2023-01-29T10:56:29;22.20;34.80
21275;DHT22;36472;52.170;20.884;2023-01-29T10:59:09;22.20;35.50
21275;DHT22;36472;52.170;20.884;2023-01-29T11:01:58;22.20;34.80
21275;DHT22;36472;52.170;20.884;2023-01-29T11:04:30;22.20;35.00
21275;DHT22;36472;52.170;20.884;2023-01-29T11:07:01;22.20;35.00
21275;DHT22;36472;52.170;20.884;2023-01-29T11:09:34;22.20;34.90
21275;DHT22;36472;52.170;20.884;2023-01-29T11:12:12;22.20;35.20
21275;DHT22;36472;52.170;20.884;2023-01-29T11:14:45;22.20;35.20
21275;DHT22;36472;52.170;20.884;2023-01-29T11:17:22;22.20;35.30
21275;DHT22;36472;52.170;20.884;2023-01-29T11:19:53;22.20;35.50
21275;DHT22;36472;52.170;20.884;2023-01-29T11:22:24;22.20;35.50
21275;DHT22;36472;52.170;20.884;2023-01-29T11:25:09;22.20;35.40
21275;DHT22;36472;52.170;20.884;2023-01-29T11:27:46;22.20;35.60
21275;DHT22;36472;52.170;20.884;2023-01-29T11:30:21;22.20;35.70
21275;DHT22;36472;52.170;20.884;2023-01-29T11:33:04;22.20;35.70
21275;DHT22;36472;52.170;20.884;2023-01-29T11:35:36;22.20;35.40
21275;DHT22;36472;52.170;20.884;2023-01-29T11:38:08;22.20;35.60
21275;DHT22;36472;52.170;20.884;2023-01-29T11:40:46;22.30;36.20
21275;DHT22;36472;52.170;20.884;2023-01-29T11:43:21;22.30;35.90
21275;DHT22;36472;52.170;20.884;2023-01-29T11:45:57;22.30;35.70
21275;DHT22;36472;52.170;20.884;2023-01-29T11:48:40;22.30;35.20
21275;DHT22;36472;52.170;20.884;2023-01-29T11:51:20;22.30;35.30
21275;DHT22;36472;52.170;20.884;2023-01-29T11:53:53;22.30;35.20
21275;DHT22;36472;52.170;20.884;2023-01-29T11:56:28;22.30;35.40
21275;DHT22;36472;52.170;20.884;2023-01-29T11:59:01;22.20;35.40
21275;DHT22;36472;52.170;20.884;2023-01-29T12:01:35;22.20;35.30
21275;DHT22;36472;52.170;20.884;2023-01-29T12:04:16;22.30;35.50
21275;DHT22;36472;52.170;20.884;2023-01-29T12:06:49;22.20;35.40
21275;DHT22;36472;52.170;20.884;2023-01-29T12:09:21;22.20;35.50
21275;DHT22;36472;52.170;20.884;2023-01-29T12:11:53;22.10;35.30
21275;DHT22;36472;52.170;20.884;2023-01-29T12:14:30;22.10;35.40
21275;DHT22;36472;52.170;20.884;2023-01-29T12:17:05;22.00;35.50
21275;DHT22;36472;52.170;20.884;2023-01-29T12:19:45;22.00;35.70
21275;DHT22;36472;52.170;20.884;2023-01-29T12:22:22;21.90;35.90
21275;DHT22;36472;52.170;20.884;2023-01-29T12:25:04;22.00;36.00
21275;DHT22;36472;52.170;20.884;2023-01-29T12:27:46;21.90;35.90
21275;DHT22;36472;52.170;20.884;2023-01-29T12:30:26;21.90;35.90
21275;DHT22;36472;52.170;20.884;2023-01-29T12:33:04;21.90;36.10
21275;DHT22;36472;52.170;20.884;2023-01-29T12:35:47;21.90;35.90
21275;DHT22;36472;52.170;20.884;2023-01-29T12:38:22;22.00;36.00
21275;DHT22;36472;52.170;20.884;2023-01-29T12:40:55;22.00;35.80
21275;DHT22;36472;52.170;20.884;2023-01-29T12:43:35;21.90;35.90
21275;DHT22;36472;52.170;20.884;2023-01-29T12:46:14;21.90;35.90
21275;DHT22;36472;52.170;20.884;2023-01-29T12:48:49;21.80;35.90
21275;DHT22;36472;52.170;20.884;2023-01-29T12:51:30;21.80;36.00
21275;DHT22;36472;52.170;20.884;2023-01-29T12:54:07;21.90;36.20
21275;DHT22;36472;52.170;20.884;2023-01-29T12:56:43;21.90;36.00
21275;DHT22;36472;52.170;20.884;2023-01-29T12:59:20;21.90;36.00
21275;DHT22;36472;52.170;20.884;2023-01-29T13:01:57;21.90;36.00
21275;DHT22;36472;52.170;20.884;2023-01-29T13:04:35;21.90;36.10
21275;DHT22;36472;52.170;20.884;2023-01-29T13:07:14;21.80;36.20
21275;DHT22;36472;52.170;20.884;2023-01-29T13:09:50;21.80;36.40
21275;DHT22;36472;52.170;20.884;2023-01-29T13:12:23;21.80;36.50
21275;DHT22;36472;52.170;20.884;2023-01-29T13:14:56;21.80;36.60
21275;DHT22;36472;52.170;20.884;2023-01-29T13:17:32;21.90;36.90
21275;DHT22;36472;52.170;20.884;2023-01-29T13:20:11;21.80;36.70
21275;DHT22;36472;52.170;20.884;2023-01-29T13:22:47;21.80;36.80
21275;DHT22;36472;52.170;20.884;2023-01-29T13:25:20;21.80;36.60
21275;DHT22;36472;52.170;20.884;2023-01-29T13:27:49;21.90;36.60
21275;DHT22;36472;52.170;20.884;2023-01-29T13:30:27;21.90;36.70
21275;DHT22;36472;52.170;20.884;2023-01-29T13:33:00;21.90;36.90
21275;DHT22;36472;52.170;20.884;2023-01-29T13:35:41;21.80;36.80
21275;DHT22;36472;52.170;20.884;2023-01-29T13:38:22;21.80;37.20
21275;DHT22;36472;52.170;20.884;2023-01-29T13:40:57;21.80;37.30
21275;DHT22;36472;52.170;20.884;2023-01-29T13:43:33;21.80;37.50
21275;DHT22;36472;52.170;20.884;2023-01-29T13:46:09;21.90;37.60
21275;DHT22;36472;52.170;20.884;2023-01-29T13:48:41;21.90;37.70
21275;DHT22;36472;52.170;20.884;2023-01-29T13:51:15;21.80;37.70
21275;DHT22;36472;52.170;20.884;2023-01-29T13:53:55;21.80;37.80
21275;DHT22;36472;52.170;20.884;2023-01-29T13:56:40;21.70;37.80
21275;DHT22;36472;52.170;20.884;2023-01-29T13:59:23;21.80;38.10
21275;DHT22;36472;52.170;20.884;2023-01-29T14:02:21;21.70;38.00
21275;DHT22;36472;52.170;20.884;2023-01-29T14:08:39;21.70;38.00
21275;DHT22;36472;52.170;20.884;2023-01-29T14:11:34;21.60;37.90
21275;DHT22;36472;52.170;20.884;2023-01-29T14:17:30;21.60;38.00
21275;DHT22;36472;52.170;20.884;2023-01-29T14:20:02;21.60;38.00
21275;DHT22;36472;52.170;20.884;2023-01-29T14:22:52;21.50;37.90
21275;DHT22;36472;52.170;20.884;2023-01-29T14:25:28;21.50;37.90
21275;DHT22;36472;52.170;20.884;2023-01-29T14:28:01;21.40;37.90
21275;DHT22;36472;52.170;20.884;2023-01-29T14:30:34;21.40;38.00
21275;DHT22;36472;52.170;20.884;2023-01-29T14:33:05;21.40;38.00
21275;DHT22;36472;52.170;20.884;2023-01-29T14:35:52;21.50;37.90
21275;DHT22;36472;52.170;20.884;2023-01-29T14:38:26;21.50;37.90
21275;DHT22;36472;52.170;20.884;2023-01-29T14:41:06;21.50;38.10
21275;DHT22;36472;52.170;20.884;2023-01-29T14:43:43;21.50;38.10
21275;DHT22;36472;52.170;20.884;2023-01-29T14:46:41;21.50;37.90
21275;DHT22;36472;52.170;20.884;2023-01-29T14:49:48;21.50;37.90
21275;DHT22;36472;52.170;20.884;2023-01-29T14:52:21;21.50;38.10
21275;DHT22;36472;52.170;20.884;2023-01-29T14:54:58;21.50;38.30
21275;DHT22;36472;52.170;20.884;2023-01-29T14:57:30;21.60;38.30
21275;DHT22;36472;52.170;20.884;2023-01-29T15:00:03;21.60;38.30
21275;DHT22;36472;52.170;20.884;2023-01-29T15:02:38;21.60;38.40
21275;DHT22;36472;52.170;20.884;2023-01-29T15:05:15;21.70;38.40
21275;DHT22;36472;52.170;20.884;2023-01-29T15:07:52;21.70;38.40
21275;DHT22;36472;52.170;20.884;2023-01-29T15:10:31;21.70;38.60
21275;DHT22;36472;52.170;20.884;2023-01-29T15:13:13;21.60;38.50
21275;DHT22;36472;52.170;20.884;2023-01-29T15:15:51;21.60;38.70
21275;DHT22;36472;52.170;20.884;2023-01-29T15:18:32;21.60;38.70
21275;DHT22;36472;52.170;20.884;2023-01-29T15:21:10;21.60;38.70
21275;DHT22;36472;52.170;20.884;2023-01-29T15:23:41;21.60;38.60
21275;DHT22;36472;52.170;20.884;2023-01-29T15:26:12;21.50;38.80
21275;DHT22;36472;52.170;20.884;2023-01-29T15:28:53;21.50;38.90
21275;DHT22;36472;52.170;20.884;2023-01-29T15:31:31;21.50;39.10
21275;DHT22;36472;52.170;20.884;2023-01-29T15:34:05;21.60;39.10
21275;DHT22;36472;52.170;20.884;2023-01-29T15:36:35;21.60;39.00
21275;DHT22;36472;52.170;20.884;2023-01-29T15:39:14;21.60;38.90
21275;DHT22;36472;52.170;20.884;2023-01-29T15:41:45;21.50;39.10
21275;DHT22;36472;52.170;20.884;2023-01-29T15:44:16;21.50;39.00
21275;DHT22;36472;52.170;20.884;2023-01-29T15:46:49;21.60;39.40
21275;DHT22;36472;52.170;20.884;2023-01-29T15:49:29;21.50;39.20
21275;DHT22;36472;52.170;20.884;2023-01-29T15:52:02;21.50;39.40
21275;DHT22;36472;52.170;20.884;2023-01-29T15:54:34;21.50;39.30
21275;DHT22;36472;52.170;20.884;2023-01-29T15:57:05;21.50;39.30
21275;DHT22;36472;52.170;20.884;2023-01-29T15:59:43;21.50;39.40
21275;DHT22;36472;52.170;20.884;2023-01-29T16:02:26;21.50;39.30
21275;DHT22;36472;52.170;20.884;2023-01-29T16:05:05;21.50;39.30
21275;DHT22;36472;52.170;20.884;2023-01-29T16:07:40;21.60;39.30
21275;DHT22;36472;52.170;20.884;2023-01-29T16:10:16;21.60;39.00
21275;DHT22;36472;52.170;20.884;2023-01-29T16:12:48;21.50;38.90
21275;DHT22;36472;52.170;20.884;2023-01-29T16:15:33;21.50;39.00
21275;DHT22;36472;52.170;20.884;2023-01-29T16:18:19;21.60;39.10